createdAt,value
2023-03-08T00:01:24.978Z,84.78
2023-03-08T00:07:13.471Z,85.82
2023-03-08T00:09:59.347Z,86.21
2023-03-08T00:12:44.763Z,86.19
2023-03-08T00:15:29.933Z,87.81
2023-03-08T00:18:15.587Z,87.38
2023-03-08T00:21:03.635Z,87.30
2023-03-08T00:23:52.299Z,87.19
2023-03-08T00:26:37.833Z,87.17
2023-03-08T00:29:23.522Z,86.82
2023-03-08T00:32:08.617Z,86.25
2023-03-08T00:34:54.530Z,86.34
2023-03-08T00:37:39.705Z,85.33
2023-03-08T00:40:25.333Z,85.11
2023-03-08T00:43:10.754Z,84.96
2023-03-08T00:45:56.649Z,84.88
2023-03-08T00:48:42.476Z,84.41
2023-03-08T00:51:29.123Z,83.69
2023-03-08T00:54:14.816Z,82.87
2023-03-08T00:57:00.218Z,83.04
2023-03-08T00:59:45.431Z,82.95
2023-03-08T01:02:32.318Z,83.55
2023-03-08T01:05:17.884Z,83.30
2023-03-08T01:08:03.228Z,84.09
2023-03-08T01:10:58.862Z,84.61
2023-03-08T01:13:44.231Z,84.12
2023-03-08T01:16:31.275Z,85.04
2023-03-08T01:19:17.777Z,84.47
2023-03-08T01:22:03.280Z,84.86
2023-03-08T01:24:49.980Z,84.63
2023-03-08T01:27:35.438Z,84.45
2023-03-08T01:30:21.498Z,84.35
2023-03-08T01:33:06.866Z,83.67
2023-03-08T01:35:52.698Z,84.23
2023-03-08T01:38:38.894Z,84.73
2023-03-08T01:41:30.271Z,85.01
2023-03-08T01:44:18.185Z,84.67
2023-03-08T01:47:04.381Z,85.17
2023-03-08T01:50:10.962Z,84.85
2023-03-08T01:52:58.607Z,85.22
2023-03-08T01:55:44.358Z,85.17
2023-03-08T01:58:30.546Z,85.88
2023-03-08T02:01:16.024Z,86.11
2023-03-08T02:04:02.896Z,86.00
2023-03-08T02:06:49.522Z,85.69
2023-03-08T02:09:39.585Z,85.35
2023-03-08T02:12:26.154Z,84.81
2023-03-08T02:15:17.296Z,84.09
2023-03-08T02:18:07.332Z,84.13
2023-03-08T02:20:52.549Z,83.44
2023-03-08T02:23:38.101Z,83.22
2023-03-08T02:26:23.740Z,83.07
2023-03-08T02:29:08.917Z,83.18
2023-03-08T02:31:54.375Z,83.34
2023-03-08T02:34:39.611Z,82.50
2023-03-08T02:37:24.956Z,81.59
2023-03-08T02:40:11.269Z,82.23
2023-03-08T02:42:56.693Z,82.98
2023-03-08T02:45:42.158Z,83.41
2023-03-08T02:48:27.358Z,84.19
2023-03-08T02:51:12.763Z,83.63
2023-03-08T02:53:58.492Z,83.76
2023-03-08T02:56:43.847Z,84.07
2023-03-08T02:59:30.864Z,84.36
2023-03-08T03:02:17.189Z,84.14
2023-03-08T03:05:05.021Z,83.22
2023-03-08T03:07:50.495Z,83.18
2023-03-08T03:13:23.781Z,82.25
2023-03-08T03:16:13.214Z,82.46
2023-03-08T03:18:58.660Z,83.00
2023-03-08T03:21:44.171Z,83.12
2023-03-08T03:24:29.487Z,82.36
2023-03-08T03:27:18.802Z,83.27
2023-03-08T03:30:05.931Z,83.68
2023-03-08T03:32:51.183Z,84.09
2023-03-08T03:35:42.088Z,83.73
2023-03-08T03:38:29.024Z,83.64
2023-03-08T03:41:18.126Z,83.31
2023-03-08T03:44:03.977Z,83.14
2023-03-08T03:46:49.128Z,83.10
2023-03-08T03:49:40.159Z,82.99
2023-03-08T03:52:26.230Z,82.74
2023-03-08T03:55:18.140Z,82.70
2023-03-08T03:58:03.998Z,82.22
2023-03-08T04:00:50.684Z,82.42
2023-03-08T04:03:45.688Z,82.32
2023-03-08T04:06:33.370Z,82.14
2023-03-08T04:09:19.617Z,82.94
2023-03-08T04:12:12.182Z,82.35
2023-03-08T04:14:58.222Z,81.83
2023-03-08T04:17:47.799Z,81.49
2023-03-08T04:20:33.331Z,81.25
2023-03-08T04:23:19.854Z,81.53
2023-03-08T04:26:07.679Z,81.95
2023-03-08T04:28:53.641Z,82.04
2023-03-08T04:31:39.761Z,82.89
2023-03-08T04:34:29.230Z,83.26
2023-03-08T04:37:14.672Z,82.43
2023-03-08T04:40:03.740Z,82.52
2023-03-08T04:42:51.715Z,81.75
2023-03-08T04:45:42.863Z,82.67
2023-03-08T04:48:30.932Z,81.59
2023-03-08T04:51:16.844Z,81.32
2023-03-08T04:54:03.288Z,81.80
2023-03-08T04:56:48.524Z,82.10
2023-03-08T04:59:34.526Z,81.73
2023-03-08T05:02:23.517Z,81.99
2023-03-08T05:05:09.326Z,81.94
2023-03-08T05:07:55.111Z,82.00
2023-03-08T05:10:46.449Z,82.30
2023-03-08T05:13:35.160Z,81.88
2023-03-08T05:16:20.741Z,82.03
2023-03-08T05:19:06.338Z,82.09
2023-03-08T05:21:57.385Z,81.55
2023-03-08T05:24:42.986Z,82.21
2023-03-08T05:27:33.151Z,81.79
2023-03-08T05:30:19.454Z,82.21
2023-03-08T05:33:05.652Z,82.25
2023-03-08T05:35:55.211Z,81.79
2023-03-08T05:38:42.565Z,81.48
2023-03-08T05:41:29.636Z,81.81
2023-03-08T05:44:16.536Z,81.17
2023-03-08T05:47:01.977Z,81.66
2023-03-08T05:49:47.410Z,81.51
2023-03-08T05:52:34.839Z,81.28
2023-03-08T05:55:20.888Z,80.95
2023-03-08T05:58:06.411Z,80.42
2023-03-08T06:00:53.787Z,80.33
2023-03-08T06:03:39.918Z,79.47
2023-03-08T06:06:26.615Z,79.72
2023-03-08T06:09:16.289Z,80.25
2023-03-08T06:12:02.148Z,79.78
2023-03-08T06:14:48.190Z,80.05
2023-03-08T06:17:36.749Z,79.73
2023-03-08T06:20:23.730Z,79.53
2023-03-08T06:23:10.933Z,79.28
2023-03-08T06:25:58.256Z,79.34
2023-03-08T06:28:45.078Z,78.74
2023-03-08T06:31:31.665Z,78.61
2023-03-08T06:34:19.923Z,79.33
2023-03-08T06:37:08.070Z,78.83
2023-03-08T06:39:54.072Z,79.26
2023-03-08T06:42:41.828Z,79.12
2023-03-08T06:45:32.794Z,78.69
2023-03-08T06:48:18.324Z,79.27
2023-03-08T06:51:05.491Z,79.13
2023-03-08T06:53:50.917Z,78.89
2023-03-08T06:56:39.994Z,78.35
2023-03-08T06:59:25.626Z,78.39
2023-03-08T07:02:11.108Z,78.34
2023-03-08T07:04:56.536Z,78.20
2023-03-08T07:07:43.330Z,78.37
2023-03-08T07:10:29.129Z,79.33
2023-03-08T07:13:14.326Z,79.21
2023-03-08T07:15:59.953Z,78.33
2023-03-08T07:18:45.690Z,78.18
2023-03-08T07:21:31.052Z,77.93
2023-03-08T07:24:21.811Z,78.81
2023-03-08T07:27:07.529Z,78.68
2023-03-08T07:29:54.696Z,78.15
2023-03-08T07:32:42.108Z,78.68
2023-03-08T07:35:28.010Z,80.35
2023-03-08T07:38:15.494Z,81.76
2023-03-08T07:41:00.817Z,81.11
2023-03-08T07:43:46.192Z,80.60
2023-03-08T07:46:35.660Z,79.31
2023-03-08T07:49:21.054Z,79.14
2023-03-08T07:52:06.526Z,80.70
2023-03-08T07:54:51.563Z,82.17
2023-03-08T07:57:37.558Z,82.01
2023-03-08T08:00:26.141Z,83.29
2023-03-08T08:03:11.713Z,83.64
2023-03-08T08:05:57.247Z,83.83
2023-03-08T08:08:42.675Z,84.53
2023-03-08T08:11:28.261Z,84.47
2023-03-08T08:14:13.482Z,85.29
2023-03-08T08:16:58.917Z,84.91
2023-03-08T08:19:44.392Z,85.17
2023-03-08T08:22:29.704Z,85.67
2023-03-08T08:25:14.912Z,84.80
2023-03-08T08:28:00.306Z,83.38
2023-03-08T08:30:55.992Z,80.81
2023-03-08T08:33:41.283Z,81.12
2023-03-08T08:36:27.822Z,81.21
2023-03-08T08:39:13.451Z,78.76
2023-03-08T08:41:59.021Z,80.32
2023-03-08T08:45:13.308Z,80.16
2023-03-08T08:47:59.794Z,78.61
2023-03-08T08:50:45.683Z,79.60
2023-03-08T08:53:31.419Z,81.10
2023-03-08T08:56:27.872Z,81.47
2023-03-08T08:59:17.026Z,81.34
2023-03-08T09:02:02.267Z,80.08
2023-03-08T09:04:47.936Z,79.54
2023-03-08T09:07:33.146Z,80.32
2023-03-08T09:10:18.930Z,80.94
2023-03-08T09:13:05.223Z,80.06
2023-03-08T09:15:50.441Z,80.21
2023-03-08T09:18:36.085Z,80.78
2023-03-08T09:21:21.425Z,80.58
2023-03-08T09:24:07.098Z,81.58
2023-03-08T09:26:52.219Z,82.47
2023-03-08T09:29:38.004Z,80.71
2023-03-08T09:32:23.116Z,80.61
2023-03-08T09:35:08.957Z,82.12
2023-03-08T09:37:55.628Z,82.55
2023-03-08T09:40:59.712Z,81.41
2023-03-08T09:44:19.167Z,83.70
2023-03-08T09:47:13.061Z,83.55
2023-03-08T09:50:09.041Z,82.50
2023-03-08T09:53:06.289Z,82.82
2023-03-08T09:56:02.315Z,82.92
2023-03-08T09:58:53.275Z,81.61
2023-03-08T10:01:52.069Z,82.93
2023-03-08T10:05:13.834Z,83.13
2023-03-08T10:08:09.276Z,83.04
2023-03-08T10:10:57.182Z,83.17
2023-03-08T10:13:56.604Z,83.59
2023-03-08T10:16:49.549Z,82.25
2023-03-08T10:19:43.844Z,82.14
2023-03-08T10:22:32.281Z,81.93
2023-03-08T10:25:33.026Z,82.09
2023-03-08T10:28:22.017Z,82.64
2023-03-08T10:31:42.397Z,83.96
2023-03-08T10:34:32.912Z,84.18
2023-03-08T10:37:21.359Z,83.28
2023-03-08T10:40:10.105Z,83.92
2023-03-08T10:43:00.951Z,84.09
2023-03-08T10:45:56.794Z,84.53
2023-03-08T10:48:42.303Z,84.95
2023-03-08T10:51:29.191Z,85.24
2023-03-08T10:54:15.548Z,84.96
2023-03-08T10:57:02.806Z,83.83
2023-03-08T10:59:50.203Z,84.14
2023-03-08T11:02:35.883Z,83.80
2023-03-08T11:05:24.034Z,84.89
2023-03-08T11:08:17.817Z,84.80
2023-03-08T11:11:09.560Z,84.11
2023-03-08T11:13:55.362Z,83.06
2023-03-08T11:16:53.010Z,82.94
2023-03-08T11:19:51.800Z,82.78
2023-03-08T11:22:49.049Z,84.01
2023-03-08T11:25:44.379Z,82.65
2023-03-08T11:28:47.610Z,81.46
2023-03-08T11:31:53.781Z,80.72
2023-03-08T11:34:50.381Z,80.20
2023-03-08T11:37:50.262Z,79.44
2023-03-08T11:40:59.230Z,79.81
2023-03-08T11:44:06.215Z,80.07
2023-03-08T11:46:51.277Z,79.70
2023-03-08T11:49:46.087Z,79.98
2023-03-08T11:53:04.162Z,78.66
2023-03-08T11:56:30.931Z,79.31
2023-03-08T11:59:44.484Z,78.45
2023-03-08T12:02:35.720Z,78.75
2023-03-08T12:05:30.444Z,77.79
2023-03-08T12:08:25.251Z,77.75
2023-03-08T12:11:22.231Z,78.29
2023-03-08T12:14:17.153Z,75.38
2023-03-08T12:17:12.055Z,77.01
2023-03-08T12:19:58.210Z,73.83
2023-03-08T12:23:04.216Z,72.58
2023-03-08T12:25:58.305Z,72.92
2023-03-08T12:29:02.081Z,73.95
2023-03-08T12:31:48.789Z,71.80
2023-03-08T12:34:39.933Z,72.47
2023-03-08T12:37:29.986Z,72.13
2023-03-08T12:40:35.003Z,71.36
2023-03-08T12:43:20.322Z,72.86
2023-03-08T12:46:08.680Z,71.32
2023-03-08T12:48:54.285Z,71.89
2023-03-08T12:51:41.488Z,71.71
2023-03-08T12:54:30.361Z,71.91
2023-03-08T12:57:22.321Z,71.73
2023-03-08T13:00:32.271Z,70.30
2023-03-08T13:03:35.908Z,71.40
2023-03-08T13:06:24.460Z,71.62
2023-03-08T13:09:18.875Z,73.55
2023-03-08T13:12:16.861Z,73.75
2023-03-08T13:15:28.620Z,76.06
2023-03-08T13:18:20.383Z,75.90
2023-03-08T13:21:28.607Z,75.97
2023-03-08T13:24:24.194Z,75.73
2023-03-08T13:27:15.628Z,77.77
2023-03-08T13:30:37.532Z,79.06
2023-03-08T13:33:25.887Z,79.13
2023-03-08T13:36:19.241Z,75.05
2023-03-08T13:39:07.824Z,75.04
2023-03-08T13:41:53.823Z,75.40
2023-03-08T13:44:39.235Z,75.69
2023-03-08T13:47:26.990Z,75.17
2023-03-08T13:50:29.459Z,73.81
2023-03-08T13:53:20.046Z,75.84
2023-03-08T13:56:06.391Z,80.02
2023-03-08T13:58:54.788Z,78.90
2023-03-08T14:01:47.282Z,81.34
2023-03-08T14:04:34.846Z,81.24
2023-03-08T14:07:28.695Z,82.54
2023-03-08T14:10:14.667Z,84.64
2023-03-08T14:13:00.329Z,83.60
2023-03-08T14:15:52.494Z,82.63
2023-03-08T14:18:42.374Z,78.26
2023-03-08T14:21:29.954Z,76.17
2023-03-08T14:24:21.483Z,74.23
2023-03-08T14:27:16.328Z,74.57
2023-03-08T14:30:10.326Z,74.82
2023-03-08T14:32:59.704Z,77.46
2023-03-08T14:35:53.914Z,78.56
2023-03-08T14:38:39.412Z,79.77
2023-03-08T14:41:34.575Z,78.89
2023-03-08T14:44:26.410Z,78.83
2023-03-08T14:47:35.708Z,78.35
2023-03-08T14:50:31.468Z,79.92
2023-03-08T14:53:35.801Z,81.48
2023-03-08T14:56:21.247Z,80.49
2023-03-08T14:59:08.047Z,76.82
2023-03-08T15:01:54.385Z,77.21
2023-03-08T15:04:40.618Z,78.35
2023-03-08T15:07:31.672Z,77.27
2023-03-08T15:10:43.902Z,75.27
2023-03-08T15:13:29.003Z,75.00
2023-03-08T15:16:14.828Z,75.54
2023-03-08T15:19:00.282Z,74.93
2023-03-08T15:21:45.813Z,75.56
2023-03-08T15:24:31.897Z,77.80
2023-03-08T15:27:17.234Z,77.33
2023-03-08T15:30:03.215Z,79.57
2023-03-08T15:32:49.822Z,79.06
2023-03-08T15:35:34.878Z,77.59
2023-03-08T15:38:20.623Z,78.35
2023-03-08T15:41:06.100Z,78.42
2023-03-08T15:43:51.286Z,78.18
2023-03-08T15:46:36.997Z,77.89
2023-03-08T15:49:22.330Z,77.08
2023-03-08T15:52:08.894Z,78.71
2023-03-08T15:54:57.022Z,78.51
2023-03-08T15:57:42.470Z,78.90
2023-03-08T16:00:28.368Z,78.09
2023-03-08T16:03:13.978Z,78.43
2023-03-08T16:05:59.426Z,78.74
2023-03-08T16:08:45.482Z,80.22
2023-03-08T16:11:32.883Z,80.32
2023-03-08T16:14:18.364Z,80.73
2023-03-08T16:17:04.582Z,80.83
2023-03-08T16:19:49.723Z,80.81
2023-03-08T16:22:35.091Z,80.29
2023-03-08T16:25:20.769Z,80.30
2023-03-08T16:28:06.205Z,79.05
2023-03-08T16:30:51.805Z,79.19
2023-03-08T16:33:36.932Z,79.21
2023-03-08T16:36:25.119Z,79.20
2023-03-08T16:39:10.887Z,77.82
2023-03-08T16:41:56.098Z,78.26
2023-03-08T16:44:47.537Z,76.91
2023-03-08T16:47:33.373Z,77.65
2023-03-08T16:50:19.037Z,76.82
2023-03-08T16:53:05.092Z,76.08
2023-03-08T16:55:50.437Z,76.78
2023-03-08T16:58:38.028Z,77.09
2023-03-08T17:01:24.084Z,77.45
2023-03-08T17:04:12.336Z,77.70
2023-03-08T17:06:57.648Z,77.12
2023-03-08T17:09:43.660Z,77.25
2023-03-08T17:12:28.965Z,77.14
2023-03-08T17:15:14.128Z,77.46
2023-03-08T17:22:07.775Z,76.42
2023-03-08T17:24:54.792Z,77.18
2023-03-08T17:27:41.656Z,77.24
2023-03-08T17:30:27.080Z,77.74
2023-03-08T17:33:12.702Z,77.89
2023-03-08T17:35:58.184Z,78.58
2023-03-08T17:38:43.329Z,79.07
2023-03-08T17:41:28.913Z,79.02
2023-03-08T17:44:14.655Z,79.27
2023-03-08T17:47:00.811Z,81.41
2023-03-08T17:49:46.114Z,82.69
2023-03-08T17:52:31.540Z,82.54
2023-03-08T17:55:17.261Z,82.57
2023-03-08T17:58:02.268Z,83.99
2023-03-08T18:00:47.747Z,82.53
2023-03-08T18:03:33.910Z,83.51
2023-03-08T18:06:25.219Z,84.66
2023-03-08T18:09:14.099Z,84.59
2023-03-08T18:11:59.628Z,84.81
2023-03-08T18:14:44.838Z,85.43
2023-03-08T18:17:30.022Z,84.56
2023-03-08T18:20:15.500Z,85.15
2023-03-08T18:23:01.041Z,83.57
2023-03-08T18:25:46.523Z,83.19
2023-03-08T18:28:32.009Z,82.26
2023-03-08T18:31:20.683Z,81.60
2023-03-08T18:34:07.359Z,80.21
2023-03-08T18:36:54.445Z,80.52
2023-03-08T18:39:40.953Z,80.12
2023-03-08T18:42:26.843Z,79.46
2023-03-08T18:45:12.463Z,79.47
2023-03-08T18:47:58.036Z,79.03
2023-03-08T18:50:43.308Z,79.63
2023-03-08T18:53:28.707Z,79.18
2023-03-08T18:56:14.421Z,79.11
2023-03-08T18:59:01.716Z,78.98
2023-03-08T19:01:47.582Z,78.95
2023-03-08T19:04:39.095Z,78.36
2023-03-08T19:07:26.661Z,78.58
2023-03-08T19:10:12.074Z,78.06
2023-03-08T19:12:57.279Z,77.91
2023-03-08T19:15:45.854Z,78.15
2023-03-08T19:18:31.177Z,78.09
2023-03-08T19:21:22.667Z,79.02
2023-03-08T19:24:12.570Z,79.20
2023-03-08T19:26:59.708Z,78.41
2023-03-08T19:29:45.640Z,79.26
2023-03-08T19:32:31.289Z,78.99
2023-03-08T19:35:16.771Z,79.33
2023-03-08T19:38:02.165Z,79.58
2023-03-08T19:40:47.574Z,80.20
2023-03-08T19:43:32.873Z,79.91
2023-03-08T19:46:18.495Z,80.25
2023-03-08T19:49:05.694Z,80.61
2023-03-08T19:51:53.926Z,81.80
2023-03-08T19:54:39.484Z,82.43
2023-03-08T19:57:26.178Z,82.45
2023-03-08T20:00:12.000Z,82.09
2023-03-08T20:02:57.356Z,82.13
2023-03-08T20:05:45.857Z,82.18
2023-03-08T20:08:31.387Z,83.63
2023-03-08T20:11:16.878Z,83.48
2023-03-08T20:14:03.206Z,84.44
2023-03-08T20:16:50.469Z,85.59
2023-03-08T20:19:35.885Z,86.45
2023-03-08T20:22:21.322Z,86.62
2023-03-08T20:25:07.650Z,86.68
2023-03-08T20:27:53.232Z,86.03
2023-03-08T20:30:39.538Z,86.31
2023-03-08T20:33:24.934Z,86.51
2023-03-08T20:36:10.469Z,86.85
2023-03-08T20:38:57.598Z,87.58
2023-03-08T20:41:43.160Z,87.82
2023-03-08T20:44:28.162Z,87.42
2023-03-08T20:47:13.870Z,88.57
2023-03-08T20:49:59.735Z,89.44
2023-03-08T20:52:46.353Z,89.82
2023-03-08T20:55:33.002Z,90.25
2023-03-08T20:58:18.624Z,90.34
2023-03-08T21:01:19.049Z,90.25
2023-03-08T21:04:05.615Z,90.66
2023-03-08T21:06:51.109Z,90.83
2023-03-08T21:09:36.438Z,90.45
2023-03-08T21:12:21.773Z,90.46
2023-03-08T21:15:07.721Z,91.41
2023-03-08T21:17:53.037Z,91.47
2023-03-08T21:20:38.597Z,91.25
2023-03-08T21:23:23.891Z,91.97
2023-03-08T21:26:09.223Z,92.71
2023-03-08T21:29:04.532Z,92.67
2023-03-08T21:31:52.295Z,92.70
2023-03-08T21:34:39.478Z,93.10
2023-03-08T21:37:24.760Z,93.18
2023-03-08T21:40:10.868Z,93.51
2023-03-08T21:42:56.117Z,92.66
2023-03-08T21:45:42.409Z,92.90
2023-03-08T21:48:27.625Z,93.09
2023-03-08T21:51:16.814Z,92.02
2023-03-08T21:54:02.367Z,91.01
2023-03-08T21:56:47.759Z,89.91
2023-03-08T21:59:33.318Z,88.43
2023-03-08T22:02:18.519Z,87.23
2023-03-08T22:05:04.314Z,87.30
2023-03-08T22:07:49.716Z,86.22
2023-03-08T22:10:34.800Z,86.08
2023-03-08T22:13:20.773Z,85.87
2023-03-08T22:16:06.524Z,85.89
2023-03-08T22:18:53.703Z,86.52
2023-03-08T22:21:39.371Z,86.66
2023-03-08T22:24:24.945Z,86.75
2023-03-08T22:27:10.449Z,86.07
2023-03-08T22:29:55.919Z,86.56
2023-03-08T22:32:41.556Z,85.32
2023-03-08T22:35:26.911Z,86.24
2023-03-08T22:38:12.011Z,86.27
2023-03-08T22:40:57.189Z,86.14
2023-03-08T22:43:43.469Z,86.87
2023-03-08T22:46:28.884Z,86.74
2023-03-08T22:49:16.960Z,85.92
2023-03-08T22:52:02.727Z,84.99
2023-03-08T22:54:48.067Z,85.28
2023-03-08T22:57:36.780Z,84.33
2023-03-08T23:00:22.361Z,84.41
2023-03-08T23:03:07.705Z,83.62
2023-03-08T23:05:53.614Z,83.20
2023-03-08T23:08:38.702Z,83.75
2023-03-08T23:11:24.506Z,83.10
2023-03-08T23:14:11.498Z,83.70
2023-03-08T23:16:57.315Z,84.08
2023-03-08T23:19:44.187Z,83.88
2023-03-08T23:22:29.688Z,83.96
2023-03-08T23:25:15.070Z,84.04
2023-03-08T23:28:00.527Z,84.54
2023-03-08T23:30:45.957Z,83.62
2023-03-08T23:33:31.473Z,83.60
2023-03-08T23:36:20.408Z,84.47
2023-03-08T23:39:05.502Z,84.82
2023-03-08T23:41:50.805Z,85.55
2023-03-08T23:44:37.922Z,87.58
2023-03-08T23:47:23.082Z,88.51
2023-03-08T23:50:09.195Z,88.75
2023-03-08T23:52:54.498Z,90.25
2023-03-08T23:55:41.008Z,91.31
2023-03-08T23:58:26.406Z,91.78
